Time;durP1;ratioP1;P1;durP2;ratioP2;P2;SDS_P1;SDS_P2;PMS_P1;PMS_P2;Temp;Humidity;BMP_temperature;BMP_pressure;BME280_temperature;BME280_humidity;BME280_pressure;Samples;Min_cycle;Max_cycle;Signal;HPM_P1;HPM_P2
2021/12/24 00:01:52;;;;;;;135.38;38.78;;;;;;;6.29;100.00;100512.56;4987197;28;20033;-73
2021/12/24 00:04:17;;;;;;;129.35;38.25;;;;;;;6.32;100.00;100511.78;4989371;28;20057;-73
2021/12/24 00:06:43;;;;;;;121.93;38.53;;;;;;;6.35;100.00;100514.47;4987150;28;20064;-73
2021/12/24 00:09:08;;;;;;;127.65;39.72;;;;;;;6.34;100.00;100511.00;4986847;28;20367;-73
2021/12/24 00:11:34;;;;;;;120.00;36.35;;;;;;;6.35;100.00;100505.00;4983497;28;20125;-73
2021/12/24 00:14:01;;;;;;;120.95;37.90;;;;;;;6.35;100.00;100510.19;4985778;28;20464;-73
2021/12/24 00:16:36;;;;;;;114.40;36.22;;;;;;;6.36;100.00;100511.94;4984443;28;20026;-73
2021/12/24 00:19:15;;;;;;;109.78;34.45;;;;;;;6.36;100.00;100504.19;4987559;28;20027;-73
2021/12/24 00:35:28;;;;;;;93.80;32.38;;;;;;;6.52;100.00;100494.38;4992408;28;20084;-73
2021/12/24 00:37:54;;;;;;;94.65;31.77;;;;;;;6.54;100.00;100493.56;4989098;28;20049;-73
2021/12/24 00:40:20;;;;;;;95.25;33.13;;;;;;;6.56;100.00;100483.28;4987286;28;20109;-73
2021/12/24 00:42:53;;;;;;;116.45;37.15;;;;;;;6.57;100.00;100479.88;4983715;28;20118;-73
2021/12/24 00:45:24;;;;;;;93.50;31.10;;;;;;;6.59;100.00;100478.22;4988425;28;20034;-73
2021/12/24 00:47:52;;;;;;;102.45;33.35;;;;;;;6.59;100.00;100478.22;4990243;28;20038;-73
2021/12/24 00:50:22;;;;;;;108.97;35.78;;;;;;;6.61;100.00;100473.97;4990313;28;20510;-73
2021/12/24 00:52:50;;;;;;;102.50;36.20;;;;;;;6.60;100.00;100482.53;4989147;28;20473;-73
2021/12/24 00:55:18;;;;;;;100.28;36.38;;;;;;;6.59;100.00;100478.22;4983860;28;20026;-73
2021/12/24 00:57:46;;;;;;;110.50;35.47;;;;;;;6.63;100.00;100474.00;4981454;28;20516;-73
2021/12/24 01:00:14;;;;;;;98.00;34.55;;;;;;;6.64;100.00;100471.47;4988392;28;20144;-73
2021/12/24 01:02:40;;;;;;;96.93;32.90;;;;;;;6.65;100.00;100470.66;4989341;28;20656;-73
2021/12/24 01:05:06;;;;;;;102.70;35.30;;;;;;;6.66;100.00;100474.13;4989828;28;20042;-73
2021/12/24 01:07:32;;;;;;;96.15;34.45;;;;;;;6.68;100.00;100475.06;4979862;28;20049;-73
2021/12/24 01:09:57;;;;;;;96.95;33.85;;;;;;;6.72;100.00;100477.78;4985427;28;20401;-73
2021/12/24 01:12:24;;;;;;;94.32;33.63;;;;;;;6.72;100.00;100472.63;4987610;28;20400;-73
2021/12/24 01:14:49;;;;;;;103.05;35.33;;;;;;;6.72;100.00;100464.84;4989437;28;20299;-74
2021/12/24 01:19:43;;;;;;;102.38;36.22;;;;;;;6.74;100.00;100460.59;4990437;28;20082;-73
2021/12/24 01:22:54;;;;;;;99.97;35.20;;;;;;;6.75;100.00;100467.53;4988625;28;20030;-73
2021/12/24 01:25:11;;;;;;;101.53;34.45;;;;;;;6.77;100.00;100465.00;4990776;28;20169;-73
2021/12/24 01:27:57;;;;;;;115.53;38.67;;;;;;;6.79;100.00;100459.03;4989276;28;20044;-74
2021/12/24 01:38:27;;;;;;;134.18;41.65;;;;;;;6.95;100.00;100469.88;4986224;28;20692;-73
2021/12/24 01:43:21;;;;;;;148.27;41.33;;;;;;;6.99;100.00;100466.56;4987991;28;20026;-73
2021/12/24 01:45:49;;;;;;;134.85;42.20;;;;;;;7.01;100.00;100469.19;4989205;28;20049;-73
2021/12/24 01:48:15;;;;;;;151.88;43.63;;;;;;;7.02;100.00;100474.44;4989620;28;20030;-73
2021/12/24 01:50:43;;;;;;;166.25;47.65;;;;;;;7.04;100.00;100472.78;4991516;28;20076;-73
2021/12/24 01:53:09;;;;;;;162.50;45.17;;;;;;;7.07;100.00;100475.47;4981584;28;20034;-73
2021/12/24 01:55:36;;;;;;;174.70;48.75;;;;;;;7.09;100.00;100473.78;4989774;28;20074;-73
2021/12/24 01:58:02;;;;;;;191.57;51.40;;;;;;;7.10;100.00;100470.38;4987949;28;20474;-73
2021/12/24 02:00:43;;;;;;;182.43;51.60;;;;;;;7.12;100.00;100468.69;4987837;28;20046;-73
2021/12/24 02:03:11;;;;;;;178.75;48.88;;;;;;;7.16;100.00;100468.81;4986023;28;20022;-73
2021/12/24 02:05:38;;;;;;;175.25;47.95;;;;;;;7.16;100.00;100464.50;4983605;28;20030;-73
2021/12/24 02:08:04;;;;;;;165.32;48.10;;;;;;;7.18;100.00;100474.91;4985836;28;20237;-73
2021/12/24 02:10:30;;;;;;;168.80;47.75;;;;;;;7.18;100.00;100461.97;4985452;28;20485;-73
2021/12/24 02:12:56;;;;;;;164.88;47.90;;;;;;;7.20;100.00;100461.19;4984324;28;20054;-73
2021/12/24 02:15:43;;;;;;;161.95;46.95;;;;;;;7.18;100.00;100468.00;4990835;28;20493;-73
2021/12/24 02:28:56;;;;;;;157.35;46.47;;;;;;;7.26;100.00;100463.09;4981297;28;20129;-73
2021/12/24 02:31:25;;;;;;;167.63;46.90;;;;;;;7.30;100.00;100462.34;4987816;28;20474;-73
2021/12/24 02:33:50;;;;;;;170.43;47.35;;;;;;;7.31;100.00;100464.09;4989059;28;20028;-73
2021/12/24 02:36:18;;;;;;;170.13;47.50;;;;;;;7.33;100.00;100467.63;4986187;28;20027;-73
2021/12/24 02:38:44;;;;;;;175.82;49.50;;;;;;;7.36;100.00;100459.03;4986680;28;20047;-73
2021/12/24 02:41:10;;;;;;;167.82;48.00;;;;;;;7.37;100.00;100466.91;4987251;28;20445;-74
2021/12/24 02:43:37;;;;;;;184.70;49.63;;;;;;;7.38;100.00;100460.84;4983048;28;20449;-73
2021/12/24 02:46:09;;;;;;;177.20;49.30;;;;;;;7.39;100.00;100457.44;4981338;28;20082;-73
2021/12/24 02:53:56;;;;;;;173.02;51.75;;;;;;;7.40;100.00;100464.41;4982595;28;20543;-73
2021/12/24 02:54:19;;;;;;;183.10;50.63;;;;;;;7.43;100.00;100448.03;4984177;28;20041;-73
2021/12/24 02:56:49;;;;;;;184.25;51.83;;;;;;;7.45;100.00;100451.56;4985848;28;20068;-73
2021/12/24 02:59:17;;;;;;;197.73;53.83;;;;;;;7.47;100.00;100443.00;4980569;28;20045;-73
2021/12/24 03:01:46;;;;;;;197.00;53.42;;;;;;;7.48;100.00;100455.13;4985108;28;20056;-73
2021/12/24 03:04:13;;;;;;;203.18;53.67;;;;;;;7.48;100.00;100442.16;4984038;28;20037;-73
2021/12/24 03:06:42;;;;;;;194.40;53.97;;;;;;;7.52;100.00;100447.44;4981793;28;20031;-73
2021/12/24 03:09:11;;;;;;;210.32;55.05;;;;;;;7.56;100.00;100450.19;4985466;28;20032;-74
2021/12/24 03:11:37;;;;;;;211.38;56.92;;;;;;;7.54;100.00;100446.63;4982908;28;20099;-73
2021/12/24 03:14:07;;;;;;;218.45;57.08;;;;;;;7.56;100.00;100445.00;4989134;28;20026;-73
2021/12/24 03:16:33;;;;;;;200.43;54.28;;;;;;;7.55;100.00;100439.75;4985408;28;20035;-73
2021/12/24 03:18:58;;;;;;;208.45;55.75;;;;;;;7.58;100.00;100447.63;4986895;28;20440;-73
2021/12/24 03:21:38;;;;;;;207.32;54.97;;;;;;;7.56;100.00;100444.09;4987509;28;20074;-73
2021/12/24 03:26:40;;;;;;;210.77;55.92;;;;;;;7.59;100.00;100447.66;4977997;28;20038;-73
2021/12/24 03:29:08;;;;;;;206.55;54.90;;;;;;;7.60;100.00;100441.66;4983223;28;20653;-73
2021/12/24 03:31:37;;;;;;;206.43;53.35;;;;;;;7.62;100.00;100444.28;4987408;28;20050;-73
2021/12/24 03:34:03;;;;;;;197.95;52.45;;;;;;;7.63;100.00;100459.91;4989103;28;20030;-73
2021/12/24 03:36:29;;;;;;;217.18;54.63;;;;;;;7.63;100.00;100466.78;4987017;28;20118;-73
2021/12/24 03:38:54;;;;;;;194.70;52.47;;;;;;;7.63;100.00;100462.50;4983655;28;20125;-73
2021/12/24 03:41:20;;;;;;;194.85;52.97;;;;;;;7.63;100.00;100459.91;4978516;28;20206;-73
2021/12/24 03:43:46;;;;;;;183.65;51.72;;;;;;;7.63;100.00;100459.91;4985961;28;20061;-73
2021/12/24 03:46:18;;;;;;;193.50;52.40;;;;;;;7.63;100.00;100456.41;4988513;28;20671;-73
2021/12/24 03:56:24;;;;;;;171.60;47.25;;;;;;;7.70;100.00;100463.53;4986639;28;20074;-72
2021/12/24 03:58:49;;;;;;;170.00;45.60;;;;;;;7.71;100.00;100465.28;4985224;28;20409;-73
2021/12/24 04:01:14;;;;;;;175.40;46.30;;;;;;;7.73;100.00;100455.84;4987681;28;20050;-73
2021/12/24 04:03:40;;;;;;;163.00;46.25;;;;;;;7.75;100.00;100474.03;4982492;28;20528;-73
2021/12/24 04:06:05;;;;;;;157.70;43.67;;;;;;;7.77;100.00;100459.41;4986561;28;20047;-73
2021/12/24 04:08:31;;;;;;;150.93;42.92;;;;;;;7.78;100.00;100462.03;4983678;28;20026;-73
2021/12/24 04:10:56;;;;;;;139.45;41.50;;;;;;;7.80;100.00;100460.34;4987635;28;20057;-73
2021/12/24 04:13:22;;;;;;;135.45;38.42;;;;;;;7.80;100.00;100455.16;4990490;28;20067;-73
2021/12/24 04:15:47;;;;;;;131.38;36.80;;;;;;;7.82;100.00;100450.03;4984926;28;20023;-73
2021/12/24 04:18:36;;;;;;;123.13;36.22;;;;;;;7.82;100.00;100453.53;4989677;28;20121;-73
2021/12/24 04:26:33;;;;;;;110.05;32.63;;;;;;;7.83;100.00;100455.28;4988407;28;20052;-73
2021/12/24 04:28:58;;;;;;;108.22;30.80;;;;;;;7.84;100.00;100459.63;4990478;28;20482;-73
2021/12/24 04:31:53;;;;;;;92.38;29.85;;;;;;;7.83;100.00;100447.50;4980863;28;20030;-73
2021/12/24 04:34:13;;;;;;;103.63;30.00;;;;;;;7.83;100.00;100465.66;4988011;28;20042;-73
2021/12/24 04:37:04;;;;;;;88.95;29.40;;;;;;;7.83;100.00;100464.75;4991720;28;20019;-73
2021/12/24 04:39:49;;;;;;;88.32;28.48;;;;;;;7.84;100.00;100461.34;4989996;28;20042;-73
2021/12/24 05:01:21;;;;;;;67.88;21.75;;;;;;;7.87;100.00;100463.16;4990955;28;20505;-73
2021/12/24 05:01:48;;;;;;;60.33;20.42;;;;;;;7.89;100.00;100448.50;4985379;28;20105;-73
2021/12/24 05:04:15;;;;;;;66.32;19.13;;;;;;;7.91;100.00;100452.03;4990027;28;20040;-73
2021/12/24 05:06:50;;;;;;;59.05;20.10;;;;;;;7.90;100.00;100452.84;4990650;28;20485;-73
2021/12/24 05:09:20;;;;;;;57.92;20.00;;;;;;;7.90;100.00;100456.31;4979335;28;20057;-73
2021/12/24 05:11:45;;;;;;;68.90;21.55;;;;;;;7.90;100.00;100451.13;4989431;28;20108;-72
2021/12/24 05:14:15;;;;;;;64.28;21.52;;;;;;;7.90;100.00;100455.44;4989836;28;20054;-73
2021/12/24 05:16:48;;;;;;;63.20;20.38;;;;;;;7.89;100.00;100457.16;4990235;28;20093;-73
2021/12/24 05:21:58;;;;;;;66.45;21.40;;;;;;;7.88;100.00;100459.69;4987434;28;20084;-73
2021/12/24 05:24:26;;;;;;;62.22;20.45;;;;;;;7.88;100.00;100462.28;4984582;28;20109;-73
2021/12/24 05:27:01;;;;;;;57.97;20.15;;;;;;;7.88;100.00;100462.28;4980416;28;20058;-73
2021/12/24 05:29:27;;;;;;;65.28;19.80;;;;;;;7.88;100.00;100475.25;4987017;28;20019;-73
2021/12/24 05:31:53;;;;;;;62.10;19.08;;;;;;;7.88;100.00;100473.56;4986915;28;20023;-73
2021/12/24 05:34:18;;;;;;;60.63;19.10;;;;;;;7.88;100.00;100475.25;4988456;28;20037;-73
2021/12/24 05:36:46;;;;;;;58.17;17.60;;;;;;;7.87;100.00;100473.53;4983558;28;20554;-73
2021/12/24 05:39:14;;;;;;;58.97;18.75;;;;;;;7.87;100.00;100473.53;4984886;28;20109;-73
2021/12/24 05:41:40;;;;;;;60.58;19.60;;;;;;;7.86;100.00;100476.94;4979832;28;20027;-72
2021/12/24 05:44:06;;;;;;;56.92;18.95;;;;;;;7.86;100.00;100474.34;4984759;28;20065;-73
2021/12/24 05:46:31;;;;;;;58.22;18.23;;;;;;;7.86;100.00;100474.34;4986608;28;20278;-73
2021/12/24 05:48:56;;;;;;;56.33;18.92;;;;;;;7.85;100.00;100481.25;4983528;28;20037;-73
2021/12/24 05:51:22;;;;;;;59.83;18.85;;;;;;;7.84;100.00;100474.31;4990008;28;20026;-73
2021/12/24 05:53:47;;;;;;;58.92;19.67;;;;;;;7.83;100.00;100476.03;4990612;28;20085;-73
2021/12/24 05:56:13;;;;;;;57.33;17.83;;;;;;;7.83;100.00;100486.41;4986931;28;20031;-73
2021/12/24 05:58:38;;;;;;;56.00;18.67;;;;;;;7.82;100.00;100484.66;4986499;28;20034;-73
2021/12/24 06:01:04;;;;;;;51.45;18.10;;;;;;;7.82;100.00;100489.84;4978386;28;20053;-73
2021/12/24 06:03:30;;;;;;;55.42;18.08;;;;;;;7.80;99.69;100491.47;4983241;28;20036;-73
2021/12/24 06:05:55;;;;;;;58.45;18.42;;;;;;;7.80;100.00;100493.22;4982651;28;20512;-73
2021/12/24 06:08:20;;;;;;;53.60;17.02;;;;;;;7.79;99.82;100494.94;4987680;28;20026;-73
2021/12/24 06:10:45;;;;;;;53.75;17.20;;;;;;;7.79;100.00;100484.56;4987632;28;20041;-73
2021/12/24 06:13:11;;;;;;;52.28;15.95;;;;;;;7.78;99.96;100482.78;4982619;28;20088;-73
2021/12/24 06:15:44;;;;;;;51.25;16.80;;;;;;;7.79;99.77;100488.84;4978450;28;20031;-73
2021/12/24 06:18:13;;;;;;;52.22;16.20;;;;;;;7.77;99.73;100482.75;4987539;28;20042;-73
2021/12/24 06:20:41;;;;;;;57.85;16.92;;;;;;;7.77;99.49;100481.03;4985808;28;20034;-73
2021/12/24 06:23:09;;;;;;;54.63;16.25;;;;;;;7.77;99.60;100480.16;4987141;28;20041;-73
2021/12/24 06:25:34;;;;;;;51.10;16.20;;;;;;;7.76;99.61;100487.06;4984944;28;20022;-73
2021/12/24 06:27:59;;;;;;;50.90;15.27;;;;;;;7.77;99.36;100493.13;4982338;28;20061;-73
2021/12/24 06:30:29;;;;;;;49.92;16.13;;;;;;;7.77;99.37;100491.41;4980838;28;20050;-73
2021/12/24 06:32:54;;;;;;;50.63;15.90;;;;;;;7.78;99.23;100489.69;4978070;28;20057;-73
2021/12/24 06:35:20;;;;;;;57.00;16.20;;;;;;;7.76;99.46;100489.66;4983859;28;20474;-73
2021/12/24 06:37:45;;;;;;;47.38;15.40;;;;;;;7.75;99.28;100481.81;4987891;28;20072;-73
2021/12/24 06:40:11;;;;;;;53.50;15.15;;;;;;;7.75;99.70;100487.91;4986302;28;20469;-73
2021/12/24 06:42:36;;;;;;;43.10;15.45;;;;;;;7.75;99.32;100487.00;4985103;28;20553;-73
2021/12/24 06:45:02;;;;;;;56.50;15.30;;;;;;;7.74;99.17;100491.31;4983528;28;20027;-73
2021/12/24 06:47:27;;;;;;;49.05;14.95;;;;;;;7.73;99.17;100492.13;4982691;28;20038;-73
2021/12/24 06:49:52;;;;;;;51.20;15.50;;;;;;;7.73;99.13;100491.25;4988553;28;20033;-73
2021/12/24 06:52:18;;;;;;;48.45;14.85;;;;;;;7.72;99.30;100493.00;4979721;28;20034;-73
2021/12/24 06:54:43;;;;;;;51.67;14.88;;;;;;;7.73;99.87;100489.53;4987445;28;20473;-73
2021/12/24 06:57:14;;;;;;;46.45;13.68;;;;;;;7.73;99.38;100493.88;4983782;28;20034;-73
2021/12/24 06:59:40;;;;;;;45.83;13.57;;;;;;;7.72;99.38;100495.59;4989998;28;20117;-72
2021/12/24 07:02:05;;;;;;;50.10;14.75;;;;;;;7.72;99.07;100497.28;4978472;28;20109;-73
2021/12/24 07:04:30;;;;;;;47.58;14.10;;;;;;;7.72;99.26;100495.59;4979044;28;20160;-73
2021/12/24 07:06:56;;;;;;;46.95;13.73;;;;;;;7.73;99.13;100486.94;4981764;28;20022;-73
2021/12/24 07:09:22;;;;;;;47.53;14.23;;;;;;;7.73;99.01;100489.53;4984270;28;20490;-73
2021/12/24 07:11:49;;;;;;;43.25;14.18;;;;;;;7.74;98.91;100486.13;4984439;28;20061;-73
2021/12/24 07:14:15;;;;;;;47.90;14.63;;;;;;;7.74;99.05;100475.75;4979202;28;20038;-73
2021/12/24 07:16:40;;;;;;;46.38;15.20;;;;;;;7.74;98.90;100474.88;4979764;28;20047;-73
2021/12/24 07:19:06;;;;;;;49.97;15.70;;;;;;;7.74;99.04;100477.47;4982624;28;20409;-73
2021/12/24 07:21:34;;;;;;;46.25;15.35;;;;;;;7.72;99.04;100474.84;4973433;28;20026;-73
2021/12/24 07:24:00;;;;;;;55.08;16.25;;;;;;;7.72;98.68;100480.03;4984159;28;20030;-73
2021/12/24 07:26:25;;;;;;;55.72;16.40;;;;;;;7.74;99.00;100485.25;4987205;28;20048;-73
2021/12/24 07:28:51;;;;;;;46.53;15.18;;;;;;;7.73;98.96;100483.50;4981702;28;20073;-73
2021/12/24 07:31:16;;;;;;;48.95;15.02;;;;;;;7.74;98.49;100486.13;4983912;28;20034;-73
2021/12/24 07:33:42;;;;;;;62.90;16.73;;;;;;;7.76;98.62;100499.13;4980719;28;20022;-73
2021/12/24 07:36:07;;;;;;;48.35;15.93;;;;;;;7.76;97.83;100489.66;4988461;28;20035;-73
2021/12/24 07:38:32;;;;;;;52.08;15.90;;;;;;;7.76;98.46;100486.16;4987213;28;20068;-73
2021/12/24 07:40:59;;;;;;;50.25;16.48;;;;;;;7.76;98.32;100500.03;4987006;28;20034;-73
2021/12/24 07:43:24;;;;;;;56.47;15.93;;;;;;;7.75;98.47;100493.09;4988506;28;20054;-73
2021/12/24 07:45:51;;;;;;;62.78;17.83;;;;;;;7.75;98.63;100498.25;4988011;28;20061;-73
2021/12/24 07:48:26;;;;;;;56.80;17.85;;;;;;;7.77;98.41;100496.59;4989962;28;20033;-72
2021/12/24 07:53:18;;;;;;;61.97;19.58;;;;;;;7.75;98.56;100500.84;4985372;28;20067;-73
2021/12/24 07:55:45;;;;;;;65.28;19.42;;;;;;;7.74;98.74;100506.00;4980560;28;20023;-73
2021/12/24 07:58:13;;;;;;;66.72;19.02;;;;;;;7.74;98.76;100498.22;4985714;28;20033;-73
2021/12/24 08:00:39;;;;;;;62.78;19.50;;;;;;;7.74;98.49;100493.91;4985203;28;20061;-73
2021/12/24 08:03:05;;;;;;;63.08;18.10;;;;;;;7.75;98.38;100500.84;4987682;28;20018;-73
2021/12/24 08:05:33;;;;;;;61.85;20.63;;;;;;;7.75;98.72;100497.38;4986004;28;20039;-73
2021/12/24 08:07:58;;;;;;;63.35;19.00;;;;;;;7.75;98.23;100497.38;4985632;28;20184;-73
2021/12/24 08:10:25;;;;;;;57.30;18.30;;;;;;;7.73;98.43;100476.56;4982957;28;20145;-73
2021/12/24 08:12:51;;;;;;;60.00;19.20;;;;;;;7.72;98.42;100487.81;4987499;28;20477;-73
2021/12/24 08:15:17;;;;;;;54.13;17.27;;;;;;;7.72;98.19;100480.03;4984586;28;20518;-73
2021/12/24 08:17:44;;;;;;;63.75;19.13;;;;;;;7.71;98.30;100488.63;4980254;28;20030;-72
2021/12/24 08:20:11;;;;;;;64.82;20.15;;;;;;;7.70;98.04;100492.06;4986081;28;20624;-73
2021/12/24 08:22:37;;;;;;;53.75;17.83;;;;;;;7.69;98.07;100500.69;4983441;28;20038;-72
2021/12/24 08:25:06;;;;;;;63.88;18.95;;;;;;;7.68;98.06;100493.72;4983816;28;20030;-73
2021/12/24 08:27:33;;;;;;;57.78;17.55;;;;;;;7.66;98.12;100497.97;4981133;28;20030;-73
2021/12/24 08:29:58;;;;;;;56.50;17.98;;;;;;;7.66;98.01;100491.09;4988850;28;20050;-73
2021/12/24 08:32:23;;;;;;;61.40;18.45;;;;;;;7.68;97.97;100493.72;4989983;28;20449;-73
2021/12/24 08:34:51;;;;;;;63.28;18.27;;;;;;;7.65;97.97;100491.91;4985688;28;20046;-73
2021/12/24 08:37:17;;;;;;;53.17;16.85;;;;;;;7.65;97.94;100497.09;4980845;28;20101;-72
2021/12/24 08:39:42;;;;;;;53.42;17.45;;;;;;;7.67;98.11;100497.16;4987166;28;20552;-72
2021/12/24 08:42:08;;;;;;;65.65;18.73;;;;;;;7.68;98.36;100495.47;4990817;28;20034;-72
2021/12/24 08:44:33;;;;;;;57.70;17.98;;;;;;;7.70;98.09;100494.66;4987860;28;20186;-72
2021/12/24 08:47:01;;;;;;;59.95;19.83;;;;;;;7.69;98.14;100486.81;4984033;28;20505;-72
2021/12/24 08:49:30;;;;;;;58.50;18.75;;;;;;;7.70;98.02;100489.47;4985765;28;20061;-72
2021/12/24 08:51:55;;;;;;;66.20;18.33;;;;;;;7.70;98.04;100479.09;4989333;28;20026;-72
2021/12/24 08:54:21;;;;;;;56.83;17.10;;;;;;;7.71;98.22;100480.84;4988475;28;20045;-72
2021/12/24 08:56:48;;;;;;;57.28;17.42;;;;;;;7.72;97.95;100480.03;4988857;28;20026;-72
2021/12/24 08:59:14;;;;;;;54.70;17.63;;;;;;;7.74;98.13;100483.53;4990674;28;20030;-72
2021/12/24 09:01:42;;;;;;;61.13;17.27;;;;;;;7.76;97.72;100489.66;4979581;28;20054;-72
2021/12/24 09:04:08;;;;;;;57.78;17.63;;;;;;;7.77;97.90;100486.22;4989707;28;20023;-72
2021/12/24 09:06:34;;;;;;;59.95;17.65;;;;;;;7.77;97.79;100481.03;4992029;28;20470;-72
2021/12/24 09:08:59;;;;;;;60.92;17.63;;;;;;;7.78;97.85;100472.41;4989900;28;20052;-72
2021/12/24 09:11:26;;;;;;;55.40;17.42;;;;;;;7.79;97.66;100473.28;4990907;28;20138;-72
2021/12/24 09:13:51;;;;;;;62.15;18.23;;;;;;;7.79;97.84;100469.00;4990158;28;20030;-72
2021/12/24 09:16:17;;;;;;;58.67;17.30;;;;;;;7.80;97.47;100475.91;4989582;28;20053;-72
2021/12/24 09:18:43;;;;;;;54.05;17.25;;;;;;;7.80;97.87;100470.72;4986095;28;20032;-72
2021/12/24 09:21:15;;;;;;;58.05;19.05;;;;;;;7.82;97.69;100474.28;4987609;28;20030;-72
2021/12/24 09:23:43;;;;;;;58.70;18.15;;;;;;;7.83;97.59;100469.94;4991247;28;20081;-72
2021/12/24 09:26:09;;;;;;;55.97;18.88;;;;;;;7.84;97.76;100472.59;4984473;28;20034;-72
2021/12/24 09:28:34;;;;;;;63.25;18.63;;;;;;;7.83;97.57;100470.84;4984047;28;20572;-72
2021/12/24 09:31:00;;;;;;;72.32;20.83;;;;;;;7.86;97.88;100474.34;4982799;28;20022;-72
2021/12/24 09:33:25;;;;;;;69.75;20.17;;;;;;;7.84;97.71;100472.59;4982847;28;20045;-72
2021/12/24 09:35:50;;;;;;;67.05;19.70;;;;;;;7.86;97.59;100472.63;4982234;28;20061;-72
2021/12/24 09:38:16;;;;;;;61.22;19.35;;;;;;;7.86;97.45;100471.75;4987746;28;20053;-72
2021/12/24 09:40:41;;;;;;;60.47;18.27;;;;;;;7.88;97.27;100478.75;4987991;28;20038;-65
2021/12/24 09:43:07;;;;;;;63.17;18.85;;;;;;;7.90;97.50;100481.38;4991140;28;20030;-65
2021/12/24 09:45:32;;;;;;;61.10;17.98;;;;;;;7.91;97.29;100475.38;4985561;28;20022;-65
2021/12/24 09:47:57;;;;;;;57.53;18.27;;;;;;;7.91;97.43;100472.78;4989437;28;20406;-65
2021/12/24 09:50:25;;;;;;;67.13;18.35;;;;;;;7.93;97.26;100481.47;4985218;28;20061;-65
2021/12/24 09:52:52;;;;;;;58.88;17.70;;;;;;;7.95;97.04;100469.41;4989654;28;20034;-65
2021/12/24 09:55:20;;;;;;;61.15;17.58;;;;;;;7.94;97.33;100467.69;4986259;28;20089;-65
2021/12/24 09:57:46;;;;;;;57.95;17.25;;;;;;;7.94;97.26;100465.94;4987412;28;20030;-65
2021/12/24 10:00:16;;;;;;;52.72;17.90;;;;;;;7.95;97.19;100475.50;4979904;28;20061;-65
2021/12/24 10:02:44;;;;;;;58.80;18.00;;;;;;;7.96;97.17;100476.38;4983353;28;20401;-65
2021/12/24 10:05:42;;;;;;;52.22;17.25;;;;;;;7.98;97.24;100469.50;4983833;28;21006;-65
2021/12/24 10:08:10;;;;;;;65.28;18.75;;;;;;;7.97;96.93;100466.03;4959789;28;20057;-65
2021/12/24 10:10:41;;;;;;;63.40;18.48;;;;;;;7.96;97.15;100468.59;4984305;28;20062;-65
2021/12/24 10:13:43;;;;;;;62.70;18.90;;;;;;;7.98;97.26;100461.72;4981132;28;20042;-65
2021/12/24 10:16:13;;;;;;;71.40;19.83;;;;;;;7.99;97.18;100468.66;4981296;28;20113;-65
2021/12/24 10:18:45;;;;;;;71.93;21.27;;;;;;;7.99;97.06;100471.25;4982254;28;20122;-65
2021/12/24 10:21:12;;;;;;;66.82;20.40;;;;;;;7.99;97.40;100471.25;4982928;28;20030;-65
2021/12/24 10:24:02;;;;;;;71.68;22.00;;;;;;;8.00;97.37;100462.66;4985099;28;20092;-65
2021/12/24 10:26:31;;;;;;;77.32;21.30;;;;;;;8.01;97.46;100464.41;4981458;28;20030;-65
2021/12/24 10:29:00;;;;;;;80.85;22.10;;;;;;;8.03;97.29;100460.13;4985023;28;20061;-65
2021/12/24 10:31:38;;;;;;;74.18;22.45;;;;;;;8.05;97.30;100461.03;4983242;28;20110;-65
2021/12/24 10:34:19;;;;;;;79.32;22.58;;;;;;;8.06;97.11;100451.56;4981317;28;20026;-65
2021/12/24 10:36:54;;;;;;;73.13;23.70;;;;;;;8.06;97.28;100459.34;4985047;28;20038;-65
2021/12/24 10:39:41;;;;;;;78.60;23.05;;;;;;;8.08;97.28;100455.06;4984437;28;20645;-65
2021/12/24 10:42:12;;;;;;;80.38;23.67;;;;;;;8.08;97.28;100458.56;4988698;28;20048;-65
2021/12/24 10:44:39;;;;;;;84.38;24.55;;;;;;;8.09;97.18;100457.69;4986181;28;20503;-77
2021/12/24 10:47:18;;;;;;;70.40;22.00;;;;;;;8.10;97.44;100456.88;4981266;28;20041;-77
2021/12/24 10:49:59;;;;;;;77.45;23.77;;;;;;;8.12;97.21;100451.72;4988872;28;20034;-77
2021/12/24 10:54:57;;;;;;;69.50;21.83;;;;;;;8.18;96.97;100447.59;4985464;28;20042;-78
2021/12/24 10:57:25;;;;;;;78.47;22.60;;;;;;;8.21;96.81;100440.72;4989156;28;20112;-77
2021/12/24 10:59:54;;;;;;;82.57;25.05;;;;;;;8.23;96.79;100441.66;4989150;28;20173;-78
2021/12/24 11:02:23;;;;;;;76.20;24.58;;;;;;;8.25;96.63;100439.97;4990010;28;20037;-77
2021/12/24 11:04:49;;;;;;;;;;;;;;;8.28;96.77;100445.22;4989520;28;20605;-77
2021/12/24 11:07:37;;;;;;;70.22;22.20;;;;;;;8.27;96.54;100446.06;4989161;28;19992;-77
2021/12/24 11:10:16;;;;;;;83.53;24.87;;;;;;;8.27;96.34;100443.47;4972837;28;20058;-77
2021/12/24 11:12:58;;;;;;;81.50;25.95;;;;;;;8.27;96.38;100439.16;4974361;28;20297;-77
2021/12/24 11:15:33;;;;;;;85.47;26.17;;;;;;;8.27;96.61;100451.25;4988102;28;20077;-78
2021/12/24 11:18:04;;;;;;;95.32;28.55;;;;;;;8.26;96.62;100441.72;4986694;28;20022;-78
2021/12/24 11:20:32;;;;;;;88.30;27.45;;;;;;;8.26;96.64;100441.72;4980572;28;20117;-77
2021/12/24 11:23:07;;;;;;;103.20;31.10;;;;;;;8.28;96.42;100442.63;4985030;28;20093;-77
2021/12/24 11:25:38;;;;;;;96.97;30.75;;;;;;;8.28;96.38;100447.81;4982025;28;20990;-77
2021/12/24 11:28:04;;;;;;;103.90;31.13;;;;;;;8.28;96.39;100440.03;4982486;28;20264;-77
2021/12/24 11:30:32;;;;;;;102.68;30.67;;;;;;;8.28;96.33;100448.69;4986077;28;20033;-77
2021/12/24 11:32:57;;;;;;;92.55;31.35;;;;;;;8.29;96.42;100444.41;4987937;28;20030;-77
2021/12/24 11:35:24;;;;;;;110.72;32.05;;;;;;;8.28;96.51;100447.81;4984979;28;20030;-77
2021/12/24 11:37:51;;;;;;;106.20;32.10;;;;;;;8.28;96.62;100447.81;4984693;28;20293;-77
2021/12/24 11:40:19;;;;;;;111.45;32.75;;;;;;;8.29;96.64;100442.66;4987197;28;20081;-78
2021/12/24 11:42:51;;;;;;;111.43;33.25;;;;;;;8.29;96.73;100457.38;4983313;28;20039;-77
2021/12/24 11:45:17;;;;;;;118.68;34.33;;;;;;;8.29;96.31;100445.25;4977481;28;20031;-77
2021/12/24 11:47:43;;;;;;;105.70;33.55;;;;;;;8.30;96.55;100444.44;4987840;28;20058;-77
2021/12/24 11:50:08;;;;;;;123.30;35.58;;;;;;;8.32;96.72;100453.13;4989505;28;20046;-77
2021/12/24 11:52:34;;;;;;;120.63;33.67;;;;;;;8.32;96.52;100440.16;4988442;28;20033;-77
2021/12/24 11:55:00;;;;;;;126.50;36.20;;;;;;;8.34;96.24;100442.78;4989304;28;20033;-77
2021/12/24 11:57:26;;;;;;;117.05;34.15;;;;;;;8.35;96.49;100439.34;5000052;28;20454;-77
2021/12/24 11:59:52;;;;;;;120.45;34.30;;;;;;;8.37;96.45;100437.66;4987953;28;20505;-77
2021/12/24 12:02:37;;;;;;;116.55;34.58;;;;;;;8.38;96.74;100435.97;4988532;28;20034;-77
2021/12/24 12:05:11;;;;;;;117.10;35.60;;;;;;;8.38;96.42;100436.84;4989048;28;20014;-78
2021/12/24 12:07:37;;;;;;;123.70;34.00;;;;;;;8.40;96.47;100432.59;4985219;28;20030;-77
2021/12/24 12:10:03;;;;;;;119.65;34.83;;;;;;;8.42;96.40;100440.41;4988377;28;20037;-77
2021/12/24 12:12:38;;;;;;;112.53;34.60;;;;;;;8.42;96.37;100430.88;4989194;28;20078;-77
2021/12/24 12:15:22;;;;;;;119.65;35.38;;;;;;;8.45;96.40;100436.19;4987447;28;20030;-77
2021/12/24 12:17:52;;;;;;;114.13;34.92;;;;;;;8.46;96.49;100435.34;4989031;28;20034;-77
2021/12/24 12:20:48;;;;;;;118.88;35.65;;;;;;;8.47;96.61;100434.53;4989039;28;20026;-77
2021/12/24 12:26:50;;;;;;;109.65;32.83;;;;;;;8.48;96.67;100431.06;4989252;28;20027;-77
2021/12/24 12:29:17;;;;;;;101.72;30.83;;;;;;;8.48;96.59;100425.88;4988979;28;20026;-77
2021/12/24 12:31:42;;;;;;;98.57;31.58;;;;;;;8.48;96.51;100418.09;4991522;28;20028;-78
2021/12/24 12:34:39;;;;;;;97.60;31.63;;;;;;;8.50;96.55;100421.63;4991392;28;20030;-77
2021/12/24 12:37:15;;;;;;;93.22;30.25;;;;;;;8.50;96.09;100423.31;4986417;28;20022;-77
2021/12/24 12:39:41;;;;;;;99.72;30.40;;;;;;;8.50;96.33;100419.03;4985970;28;20052;-77
2021/12/24 12:42:07;;;;;;;98.63;29.60;;;;;;;8.53;96.15;100426.88;4990258;28;20022;-77
2021/12/24 12:44:34;;;;;;;101.15;29.25;;;;;;;8.51;96.28;100420.75;4981616;28;20022;-77